Time;durP1;ratioP1;P1;durP2;ratioP2;P2;SDS_P1;SDS_P2;PMS_P1;PMS_P2;Temp;Humidity;BMP_temperature;BMP_pressure;BME280_temperature;BME280_humidity;BME280_pressure;Samples;Min_cycle;Max_cycle;Signal;HPM_P1;HPM_P2
2023/10/05 00:04:27;;;;;;;1.38;1.08;;;;;;;21.07;42.72;94229.94;6095217;23;20038;-90
2023/10/05 00:06:56;;;;;;;2.10;1.13;;;;;;;21.09;42.28;94217.19;6070400;23;20017;-91
2023/10/05 00:09:24;;;;;;;2.13;1.20;;;;;;;21.06;42.63;94211.94;6069735;23;20426;-90
2023/10/05 00:11:53;;;;;;;1.95;1.05;;;;;;;21.06;42.67;94211.94;6070866;23;20021;-90
2023/10/05 00:14:18;;;;;;;1.58;1.17;;;;;;;21.08;42.68;94215.69;6069489;23;20401;-90
2023/10/05 00:16:47;;;;;;;4.95;1.33;;;;;;;21.06;42.40;94220.94;6070381;23;20045;-90
2023/10/05 00:19:13;;;;;;;4.10;1.10;;;;;;;21.08;42.73;94217.69;6069210;23;20459;-91
2023/10/05 00:21:48;;;;;;;2.00;1.02;;;;;;;21.06;42.63;94223.69;6093782;23;20593;-91
2023/10/05 00:24:15;;;;;;;2.05;1.60;;;;;;;21.08;42.56;94231.44;6094179;23;20046;-89
2023/10/05 00:26:43;;;;;;;3.20;1.42;;;;;;;21.08;42.69;94236.94;6069676;23;20022;-91
2023/10/05 00:29:18;;;;;;;1.63;1.20;;;;;;;21.09;42.66;94230.19;6068825;23;20029;-93
2023/10/05 00:31:44;;;;;;;2.17;1.17;;;;;;;21.08;42.46;94225.94;6070760;23;20107;-91
2023/10/05 00:34:13;;;;;;;1.80;1.48;;;;;;;21.07;42.57;94230.69;6068836;23;20121;-91
2023/10/05 00:36:40;;;;;;;1.52;1.23;;;;;;;21.09;42.53;94227.44;6070335;23;20017;-90
2023/10/05 00:39:09;;;;;;;1.33;1.00;;;;;;;21.09;42.46;94222.69;6037129;23;20026;-90
2023/10/05 00:41:34;;;;;;;1.40;0.93;;;;;;;21.07;42.36;94222.44;6047956;23;20018;-92
2023/10/05 00:44:00;;;;;;;1.92;0.90;;;;;;;21.09;42.60;94230.94;6069998;23;20014;-92
2023/10/05 00:46:25;;;;;;;2.65;1.13;;;;;;;21.09;42.80;94224.69;6079271;23;20022;-90
2023/10/05 00:49:15;;;;;;;4.25;1.83;;;;;;;21.08;42.49;94220.44;6046478;23;20017;-90
2023/10/05 00:51:41;;;;;;;3.10;1.33;;;;;;;21.09;42.74;94214.44;6073466;23;20216;-89
2023/10/05 00:54:11;;;;;;;1.67;1.10;;;;;;;21.08;42.56;94207.44;6069713;23;20020;-91
2023/10/05 00:56:41;;;;;;;1.85;1.33;;;;;;;21.05;42.48;94216.69;6083152;23;20033;-91
2023/10/05 00:59:09;;;;;;;2.00;1.30;;;;;;;21.07;42.70;94205.19;6068740;23;20014;-90
2023/10/05 01:04:34;;;;;;;1.13;0.90;;;;;;;21.05;42.68;94208.47;6097535;23;20081;-91
2023/10/05 01:07:17;;;;;;;1.90;1.08;;;;;;;21.05;42.66;94196.72;6094002;23;20006;-91
2023/10/05 01:12:26;;;;;;;3.03;1.10;;;;;;;21.04;42.67;94201.47;6094192;23;20022;-90
2023/10/05 01:14:54;;;;;;;1.95;1.00;;;;;;;21.06;42.67;94189.97;6072128;23;20010;-91
2023/10/05 01:17:23;;;;;;;2.13;1.05;;;;;;;21.04;42.58;94178.72;6057473;23;20041;-91
2023/10/05 01:19:56;;;;;;;1.40;1.15;;;;;;;21.03;42.55;94185.47;6047117;23;20454;-89
2023/10/05 01:22:23;;;;;;;1.08;0.55;;;;;;;21.04;42.49;94197.97;6096676;23;20022;-90
2023/10/05 01:24:49;;;;;;;1.98;1.17;;;;;;;21.06;42.48;94198.22;6060533;23;20065;-90
2023/10/05 01:27:15;;;;;;;2.28;1.10;;;;;;;21.05;42.51;94202.97;6055657;23;20093;-90
2023/10/05 01:29:41;;;;;;;2.17;1.17;;;;;;;21.03;42.61;94210.22;6057895;23;20393;-90
2023/10/05 01:32:09;;;;;;;2.85;1.20;;;;;;;21.01;42.49;94202.47;6045658;23;20014;-91
2023/10/05 01:34:34;;;;;;;2.45;1.38;;;;;;;21.04;42.95;94195.22;6072309;23;20017;-90
2023/10/05 01:37:00;;;;;;;2.13;1.13;;;;;;;21.02;42.65;94198.47;6072257;23;20074;-91
2023/10/05 01:39:26;;;;;;;1.90;1.15;;;;;;;21.02;42.43;94194.97;6071216;23;20029;-91
2023/10/05 01:41:51;;;;;;;1.25;0.98;;;;;;;21.03;42.68;94204.72;6069978;23;20014;-89
2023/10/05 01:44:17;;;;;;;3.42;1.13;;;;;;;21.02;42.46;94198.47;6070658;23;20024;-90
2023/10/05 01:46:42;;;;;;;2.03;1.15;;;;;;;21.02;42.54;94186.72;6072448;23;20025;-90
2023/10/05 01:49:08;;;;;;;1.88;1.35;;;;;;;21.02;42.71;94179.22;6094221;23;20043;-90
2023/10/05 01:51:34;;;;;;;1.85;1.02;;;;;;;21.02;42.57;94181.97;6059819;23;20045;-91
2023/10/05 01:54:04;;;;;;;1.90;1.25;;;;;;;21.02;42.59;94183.97;6082463;23;20014;-91
2023/10/05 01:56:29;;;;;;;1.70;1.20;;;;;;;21.01;42.67;94177.00;6094758;23;20085;-90
2023/10/05 01:58:55;;;;;;;1.42;0.82;;;;;;;21.02;42.69;94173.72;6071524;23;20010;-90
2023/10/05 02:01:21;;;;;;;1.52;0.98;;;;;;;20.99;42.84;94180.28;6045981;23;20070;-91
2023/10/05 02:03:57;;;;;;;1.40;0.90;;;;;;;21.00;42.52;94176.25;6038569;23;20412;-91
2023/10/05 02:06:23;;;;;;;1.30;1.00;;;;;;;21.00;42.85;94170.03;6028184;23;20023;-89
2023/10/05 02:08:48;;;;;;;1.40;1.05;;;;;;;21.01;42.76;94174.25;6038271;23;20029;-91
2023/10/05 02:11:17;;;;;;;1.75;1.05;;;;;;;21.02;42.68;94165.47;6036509;23;20406;-90
2023/10/05 02:13:43;;;;;;;1.60;1.05;;;;;;;21.00;42.50;94159.75;6048059;23;20063;-90
2023/10/05 02:16:14;;;;;;;1.77;1.15;;;;;;;20.99;42.59;94165.78;6037726;23;20023;-91
2023/10/05 02:18:39;;;;;;;1.63;1.23;;;;;;;21.00;42.73;94168.00;6048916;23;20371;-91
2023/10/05 02:21:07;;;;;;;1.40;1.20;;;;;;;21.00;42.63;94164.53;6060608;23;20035;-91
2023/10/05 02:23:44;;;;;;;1.95;0.95;;;;;;;20.99;42.65;94154.78;6026861;23;20118;-92
2023/10/05 02:26:33;;;;;;;1.77;1.00;;;;;;;20.97;42.45;94160.78;6060469;23;20047;-91
2023/10/05 02:28:59;;;;;;;2.33;1.38;;;;;;;20.99;42.57;94157.53;6033425;23;20023;-93
2023/10/05 02:31:28;;;;;;;2.58;0.80;;;;;;;20.98;42.86;94156.03;6012932;23;20470;-89
2023/10/05 02:33:55;;;;;;;1.02;0.77;;;;;;;20.98;42.72;94151.28;6039079;23;20026;-90
2023/10/05 02:36:21;;;;;;;1.23;0.98;;;;;;;21.00;42.72;94159.03;6061561;23;20019;-90
2023/10/05 02:38:53;;;;;;;1.17;0.82;;;;;;;20.99;42.64;94154.78;6038641;23;20018;-91
2023/10/05 02:41:24;;;;;;;1.60;0.93;;;;;;;20.99;42.67;94163.03;6059848;23;20023;-89
2023/10/05 02:43:54;;;;;;;1.92;1.00;;;;;;;20.99;42.46;94163.03;6039563;23;20019;-91
2023/10/05 02:46:20;;;;;;;1.98;1.00;;;;;;;20.97;42.63;94162.78;6061776;23;20486;-92
2023/10/05 02:48:46;;;;;;;2.20;1.10;;;;;;;20.97;42.56;94160.03;6038047;23;20038;-91
2023/10/05 02:51:13;;;;;;;1.67;1.00;;;;;;;20.97;42.84;94166.28;6036837;23;20015;-91
2023/10/05 02:53:42;;;;;;;1.65;0.88;;;;;;;20.98;42.60;94165.03;6061205;23;20523;-91
2023/10/05 02:56:27;;;;;;;1.67;0.98;;;;;;;20.99;42.51;94166.53;6047523;23;20455;-90
2023/10/05 02:58:55;;;;;;;2.05;1.00;;;;;;;20.99;42.68;94176.78;6039478;23;20066;-90
2023/10/05 03:01:23;;;;;;;1.35;0.93;;;;;;;20.96;42.44;94162.03;6079246;23;20026;-90
2023/10/05 03:03:51;;;;;;;1.60;1.10;;;;;;;20.97;42.74;94176.53;6114005;23;20026;-91
2023/10/05 03:06:17;;;;;;;1.70;1.00;;;;;;;20.95;42.96;94177.03;6065569;23;20025;-92
2023/10/05 03:08:43;;;;;;;1.63;0.88;;;;;;;20.96;42.67;94167.53;6066141;23;20401;-90
2023/10/05 03:11:09;;;;;;;1.67;0.85;;;;;;;20.96;42.62;94175.78;6064671;23;20038;-91
2023/10/05 03:13:38;;;;;;;1.60;0.90;;;;;;;20.96;42.84;94167.53;6065873;23;20022;-91
2023/10/05 03:16:09;;;;;;;2.08;1.00;;;;;;;20.96;42.66;94175.78;6064379;23;20076;-91
2023/10/05 03:18:37;;;;;;;1.25;0.80;;;;;;;20.98;42.75;94172.53;6113350;23;20018;-92
2023/10/05 03:21:09;;;;;;;1.58;1.08;;;;;;;20.97;42.78;94176.53;6112679;23;20394;-91
2023/10/05 03:23:35;;;;;;;2.00;0.90;;;;;;;20.96;42.81;94166.78;6066775;23;20015;-90
2023/10/05 03:26:00;;;;;;;2.05;1.20;;;;;;;20.96;42.66;94175.03;6113744;23;20018;-90
2023/10/05 03:28:27;;;;;;;3.40;0.90;;;;;;;20.96;42.87;94175.78;6065475;23;20018;-91
2023/10/05 03:30:53;;;;;;;4.28;1.25;;;;;;;20.98;42.84;94183.53;6066673;23;20038;-89
2023/10/05 03:33:23;;;;;;;1.83;0.80;;;;;;;21.09;42.59;94177.94;6064268;23;20030;-89
2023/10/05 03:35:48;;;;;;;7.25;1.58;;;;;;;20.98;42.46;94175.28;6076488;23;20072;-93
2023/10/05 03:38:19;;;;;;;13.20;3.08;;;;;;;20.99;42.58;94176.78;6089896;23;20463;-89
2023/10/05 03:40:44;;;;;;;5.45;1.30;;;;;;;21.04;42.40;94168.47;6089320;23;20053;-86
2023/10/05 03:43:10;;;;;;;2.50;1.42;;;;;;;21.05;42.73;94182.97;6072640;23;20018;-90
2023/10/05 03:45:38;;;;;;;18.48;9.05;;;;;;;21.12;42.38;94180.44;6058202;23;20015;-89
2023/10/05 03:48:05;;;;;;;5.15;1.65;;;;;;;21.07;42.80;94172.22;6089101;23;20022;-92
2023/10/05 03:50:31;;;;;;;144.88;49.55;;;;;;;21.11;42.41;94167.94;6120979;23;20030;-91
2023/10/05 03:52:57;;;;;;;11.60;3.60;;;;;;;21.10;42.83;94165.69;6065362;23;20101;-91
2023/10/05 03:55:28;;;;;;;8.63;4.43;;;;;;;21.05;42.56;94167.22;6071089;23;20022;-93
2023/10/05 04:00:34;;;;;;;35.88;6.78;;;;;;;21.01;42.01;94166.75;6137086;23;20048;-90
2023/10/05 04:03:15;;;;;;;38.95;7.82;;;;;;;20.81;40.92;94172.59;6063668;23;20017;-93
2023/10/05 04:05:44;;;;;;;24.17;6.97;;;;;;;20.81;40.22;94161.63;6120864;23;20017;-93
2023/10/05 04:08:16;;;;;;;40.90;11.07;;;;;;;20.84;39.72;94164.09;6093226;23;20025;-93
2023/10/05 04:10:49;;;;;;;28.60;6.50;;;;;;;20.80;39.08;94165.63;6074055;23;20018;-95
2023/10/05 04:13:36;;;;;;;55.40;11.20;;;;;;;20.69;39.29;94162.94;6074374;23;20203;-94
2023/10/05 04:18:58;;;;;;;20.40;7.53;;;;;;;20.67;38.58;94155.22;6140581;23;20033;-94
2023/10/05 04:21:32;;;;;;;9.15;5.32;;;;;;;20.65;38.02;94160.47;6055239;23;20075;-96
2023/10/05 04:24:02;;;;;;;10.82;4.68;;;;;;;20.63;37.73;94154.72;6077714;23;20045;-93
2023/10/05 04:26:37;;;;;;;16.17;4.95;;;;;;;20.62;37.69;94158.72;6087404;23;20018;-93
2023/10/05 04:29:08;;;;;;;14.88;4.80;;;;;;;20.62;37.75;94158.72;6077160;23;20088;-91
2023/10/05 04:31:37;;;;;;;12.73;4.25;;;;;;;20.59;37.75;94154.25;6075953;23;20085;-92
2023/10/05 04:34:05;;;;;;;31.63;9.82;;;;;;;20.57;37.76;94147.78;6078592;23;20029;-93
2023/10/05 04:36:33;;;;;;;13.98;4.50;;;;;;;20.54;37.08;94149.53;6078915;23;20389;-92
2023/10/05 04:38:59;;;;;;;15.05;4.78;;;;;;;20.50;37.52;94155.31;6078782;23;20024;-93
2023/10/05 04:41:28;;;;;;;11.90;3.80;;;;;;;20.54;37.64;94166.03;6074056;23;20077;-92
2023/10/05 04:43:55;;;;;;;9.75;4.60;;;;;;;20.47;37.44;94156.31;6076756;23;20013;-90
2023/10/05 04:46:29;;;;;;;9.30;3.67;;;;;;;20.45;37.87;94150.56;6061439;23;20018;-91
2023/10/05 04:48:56;;;;;;;8.30;4.70;;;;;;;20.49;37.93;94155.81;6088577;23;20024;-91
2023/10/05 04:51:23;;;;;;;23.25;7.93;;;;;;;20.50;37.58;94149.06;6082290;23;20045;-92
2023/10/05 04:53:53;;;;;;;12.85;5.90;;;;;;;20.40;37.84;94161.56;6081648;23;20025;-92
2023/10/05 04:56:35;;;;;;;52.85;12.77;;;;;;;20.39;37.52;94162.81;6085653;23;20077;-92
2023/10/05 05:07:03;;;;;;;65.07;25.38;;;;;;;20.57;39.64;94161.53;6107743;23;20017;-93
2023/10/05 05:09:36;;;;;;;133.82;38.22;;;;;;;20.61;39.58;94149.00;6094223;23;20018;-93
2023/10/05 05:12:08;;;;;;;180.07;75.60;;;;;;;20.68;39.74;94150.47;6097315;23;20017;-93
2023/10/05 05:14:44;;;;;;;187.18;70.68;;;;;;;20.63;39.60;94154.72;6088893;23;20515;-93
2023/10/05 05:17:23;;;;;;;209.65;92.47;;;;;;;20.66;39.60;94152.97;6048273;23;20018;-94
2023/10/05 05:19:53;;;;;;;124.28;59.72;;;;;;;20.59;39.63;94148.00;6091298;23;20017;-93
2023/10/05 05:22:20;;;;;;;;;;;;;;;20.67;39.57;94151.72;6084185;23;20021;-92
2023/10/05 05:24:50;;;;;;;128.85;63.58;;;;;;;20.64;39.19;94161.72;6110305;23;19920;-93
2023/10/05 05:27:54;;;;;;;156.35;78.55;;;;;;;20.66;39.47;94164.69;6103320;23;20020;-94
2023/10/05 05:30:26;;;;;;;147.40;76.35;;;;;;;20.68;39.70;94156.69;6105670;23;20438;-93
2023/10/05 05:32:56;;;;;;;179.07;104.65;;;;;;;20.70;39.92;94154.19;6085422;23;20375;-93
2023/10/05 05:35:32;;;;;;;190.00;107.10;;;;;;;20.75;40.01;94144.44;6074129;23;20085;-94
2023/10/05 05:38:09;;;;;;;264.75;161.40;;;;;;;20.74;40.06;94154.69;6051778;23;20025;-93
2023/10/05 05:40:40;;;;;;;229.10;131.93;;;;;;;20.77;39.82;94150.16;6076471;23;20025;-94
2023/10/05 05:43:18;;;;;;;262.88;145.00;;;;;;;20.79;40.31;94153.88;6120253;23;20014;-93
2023/10/05 05:46:14;;;;;;;223.60;113.38;;;;;;;20.83;40.14;94156.38;6103444;23;20022;-95
2023/10/05 05:48:44;;;;;;;207.10;101.25;;;;;;;20.81;40.36;94156.88;6134946;23;20446;-93
2023/10/05 05:51:15;;;;;;;163.27;83.75;;;;;;;20.91;40.07;94160.06;6051472;23;20134;-93
2023/10/05 05:56:30;;;;;;;138.65;79.25;;;;;;;20.83;40.20;94156.38;6080630;23;20578;-93
2023/10/05 06:02:07;;;;;;;129.20;63.92;;;;;;;20.91;40.16;94164.81;6155676;23;20018;-91
2023/10/05 06:07:13;;;;;;;132.30;67.25;;;;;;;20.99;40.37;94166.53;6152714;23;20025;-93
2023/10/05 06:12:16;;;;;;;100.03;48.42;;;;;;;21.04;40.33;94182.22;6155482;23;20056;-92
2023/10/05 06:15:22;;;;;;;84.68;45.00;;;;;;;21.01;40.61;94180.47;6069994;23;20021;-95
2023/10/05 06:18:37;;;;;;;75.38;41.20;;;;;;;21.01;40.67;94180.47;6091592;23;20065;-93
2023/10/05 06:30:09;;;;;;;39.00;19.23;;;;;;;20.71;39.59;94183.16;5962915;23;20063;-93
2023/10/05 06:33:43;;;;;;;;;;;;;;;;;;;;;
2023/10/05 07:21:44;;;;;;;217.90;113.28;;;;;;;20.97;40.95;94204.78;6104173;23;20629;-93
2023/10/05 07:24:10;;;;;;;227.15;109.40;;;;;;;21.04;41.19;94195.22;6066635;23;20002;-94
2023/10/05 07:29:20;;;;;;;154.15;72.90;;;;;;;21.00;41.21;94198.22;6117694;23;20060;-92
2023/10/05 07:31:49;;;;;;;70.40;33.10;;;;;;;20.83;41.67;94203.09;6082423;23;20025;-96
2023/10/05 07:50:04;;;;;;;50.13;20.35;;;;;;;20.44;43.76;94189.53;6153963;23;20114;-92
2023/10/05 07:52:32;;;;;;;103.63;31.05;;;;;;;20.47;43.76;94196.75;6062277;23;20156;-92
2023/10/05 07:54:58;;;;;;;165.68;51.53;;;;;;;20.46;43.93;94198.75;6050065;23;20018;-93
2023/10/05 07:57:24;;;;;;;81.82;34.15;;;;;;;20.45;43.87;94197.25;6049739;23;20017;-94
2023/10/05 07:59:51;;;;;;;89.18;30.48;;;;;;;20.43;44.04;94196.28;6056431;23;20450;-95
2023/10/05 08:02:40;;;;;;;58.30;20.02;;;;;;;20.42;44.23;94192.03;6043828;23;20022;-93
2023/10/05 08:05:27;;;;;;;48.13;16.77;;;;;;;20.44;43.96;94187.53;6003932;23;20251;-94
2023/10/05 08:08:10;;;;;;;38.47;13.98;;;;;;;20.47;43.69;94197.50;5973393;23;20024;-94
2023/10/05 08:16:59;;;;;;;62.65;16.88;;;;;;;20.38;43.90;94184.03;6136020;23;20032;-95
2023/10/05 08:19:25;;;;;;;38.60;12.60;;;;;;;20.39;43.65;94174.56;6050554;23;20082;-93
2023/10/05 08:21:54;;;;;;;59.33;23.92;;;;;;;20.41;43.76;94193.28;6084373;23;20013;-93
2023/10/05 08:24:20;;;;;;;54.90;23.35;;;;;;;20.40;43.46;94198.03;6013699;23;20101;-93
2023/10/05 08:26:48;;;;;;;137.25;32.88;;;;;;;20.41;43.46;94182.28;6025149;23;20506;-95
2023/10/05 08:29:18;;;;;;;85.53;20.85;;;;;;;20.40;43.70;94186.28;6023733;23;20105;-94
2023/10/05 08:32:14;;;;;;;;;;;;;;;;;;;;;
2023/10/05 08:34:45;;;;;;;62.63;17.92;;;;;;;20.48;43.69;94188.00;5961228;23;20124;-94
2023/10/05 08:37:11;;;;;;;70.18;23.92;;;;;;;20.55;43.58;94199.72;6026659;23;20089;-94
2023/10/05 08:39:37;;;;;;;106.32;32.45;;;;;;;20.57;43.40;94191.75;6012179;23;20033;-93
2023/10/05 08:42:06;;;;;;;90.30;38.65;;;;;;;20.56;43.50;94193.75;6043951;23;20050;-91
2023/10/05 08:44:38;;;;;;;52.42;22.80;;;;;;;20.64;43.89;94205.66;6023012;23;20110;-92
2023/10/05 08:47:05;;;;;;;51.83;23.02;;;;;;;20.62;43.54;94193.69;6012166;23;20030;-94
2023/10/05 08:49:33;;;;;;;46.50;15.85;;;;;;;20.62;43.62;94207.44;6029286;23;20015;-93
2023/10/05 08:51:59;;;;;;;55.90;18.58;;;;;;;20.68;44.07;94219.91;6029350;23;20094;-93
2023/10/05 08:54:28;;;;;;;51.97;22.33;;;;;;;20.67;43.53;94218.41;6029726;23;20025;-95
2023/10/05 08:56:56;;;;;;;51.22;21.88;;;;;;;20.77;43.31;94216.13;6027545;23;20095;-94
2023/10/05 08:59:23;;;;;;;64.90;22.65;;;;;;;20.71;44.02;94213.38;6048863;23;20025;-91
2023/10/05 09:01:54;;;;;;;60.70;24.40;;;;;;;20.70;43.88;94209.16;6025473;23;20069;-92
2023/10/05 09:04:23;;;;;;;85.68;27.00;;;;;;;20.69;44.05;94212.41;6027780;23;20029;-93
2023/10/05 09:06:59;;;;;;;62.43;25.33;;;;;;;20.70;44.02;94220.13;6027227;23;20042;-93
2023/10/05 09:09:51;;;;;;;39.70;21.65;;;;;;;20.70;44.69;94216.66;6025156;23;20101;-92
2023/10/05 09:12:46;;;;;;;40.45;21.90;;;;;;;20.69;44.43;94215.16;6014592;23;20031;-94
2023/10/05 09:17:58;;;;;;;40.45;19.95;;;;;;;20.72;44.22;94214.88;6016514;23;20027;-92
2023/10/05 09:20:31;;;;;;;68.90;26.77;;;;;;;20.73;44.18;94212.88;6014559;23;20030;-91
2023/10/05 09:23:00;;;;;;;63.22;28.55;;;;;;;20.75;44.50;94213.88;6015022;23;20053;-91
2023/10/05 09:25:36;;;;;;;57.00;23.92;;;;;;;20.82;43.96;94210.56;6015331;23;20110;-93
2023/10/05 09:28:13;;;;;;;46.55;19.00;;;;;;;20.75;44.03;94211.13;6039773;23;20018;-91
2023/10/05 09:31:00;;;;;;;31.58;14.48;;;;;;;20.63;44.18;94212.41;6033422;23;20631;-94
2023/10/05 09:33:40;;;;;;;29.85;13.70;;;;;;;20.63;44.30;94211.66;6024536;23;20011;-93
2023/10/05 09:36:19;;;;;;;33.42;14.88;;;;;;;20.61;44.44;94206.69;6019616;23;20015;-92
2023/10/05 09:38:51;;;;;;;32.00;14.30;;;;;;;20.66;44.32;94205.91;6048371;23;20469;-93
2023/10/05 09:41:29;;;;;;;31.27;11.95;;;;;;;20.59;44.43;94219.41;5986839;23;20035;-93
2023/10/05 09:43:59;;;;;;;24.63;10.85;;;;;;;20.58;44.40;94215.94;5994204;23;20015;-92
2023/10/05 09:46:27;;;;;;;32.20;12.05;;;;;;;20.59;44.69;94208.44;5985535;23;20023;-91
2023/10/05 09:48:56;;;;;;;23.42;11.70;;;;;;;20.67;44.41;94217.66;6039586;23;20019;-92
2023/10/05 09:51:24;;;;;;;19.30;12.95;;;;;;;20.59;44.58;94228.41;5988003;23;20102;-93
2023/10/05 09:54:10;;;;;;;35.20;14.02;;;;;;;20.60;44.59;94213.44;5986391;23;20029;-93
2023/10/05 09:56:37;;;;;;;69.55;34.47;;;;;;;20.52;45.06;94204.25;5908782;23;20026;-91
2023/10/05 09:59:03;;;;;;;41.33;22.50;;;;;;;20.54;44.94;94209.97;6030282;23;20018;-92
2023/10/05 10:01:30;;;;;;;29.52;13.80;;;;;;;20.56;44.88;94201.22;5988207;23;20026;-93
2023/10/05 10:03:56;;;;;;;90.40;15.70;;;;;;;20.60;44.36;94199.69;6000301;23;20018;-91
2023/10/05 10:06:28;;;;;;;46.08;12.30;;;;;;;20.58;44.62;94201.44;6016529;23;20045;-92
2023/10/05 10:08:55;;;;;;;32.30;11.52;;;;;;;20.52;44.63;94204.97;6019235;23;20023;-93
2023/10/05 10:11:24;;;;;;;18.20;11.20;;;;;;;20.57;44.52;94200.69;5998268;23;20471;-89
2023/10/05 10:14:00;;;;;;;59.25;16.35;;;;;;;20.55;44.54;94199.72;5987810;23;20018;-91
2023/10/05 10:16:27;;;;;;;106.13;23.48;;;;;;;20.55;44.30;94205.97;5990229;23;20081;-91
2023/10/05 10:19:18;;;;;;;75.65;20.63;;;;;;;20.57;44.33;94205.47;6012705;23;20369;-91
2023/10/05 10:21:53;;;;;;;93.07;21.88;;;;;;;20.54;44.45;94199.00;6023512;23;20030;-92
2023/10/05 10:24:18;;;;;;;42.67;22.85;;;;;;;20.54;44.46;94196.25;6051401;23;20354;-92
2023/10/05 10:26:44;;;;;;;49.25;17.67;;;;;;;20.59;44.56;94194.69;6048846;23;20124;-92
2023/10/05 10:29:11;;;;;;;24.35;12.57;;;;;;;20.53;44.90;94187.25;6071512;23;20026;-92
2023/10/05 10:31:47;;;;;;;36.00;20.58;;;;;;;20.56;44.64;94187.50;6048802;23;20025;-92
2023/10/05 10:34:42;;;;;;;41.22;20.27;;;;;;;20.53;44.73;94187.25;6075982;23;20040;-92
2023/10/05 10:37:10;;;;;;;36.25;20.13;;;;;;;20.57;44.85;94178.00;6060776;23;20392;-93
2023/10/05 10:39:37;;;;;;;24.70;14.35;;;;;;;20.52;44.87;94177.50;6048267;23;20017;-92
2023/10/05 10:42:19;;;;;;;29.02;17.75;;;;;;;20.55;44.52;94175.00;6058249;23;20010;-91
2023/10/05 10:47:16;;;;;;;23.50;13.20;;;;;;;20.59;44.62;94170.72;6074344;23;20018;-90
2023/10/05 10:50:10;;;;;;;33.80;12.77;;;;;;;20.59;44.34;94161.72;6074976;23;20025;-92
2023/10/05 10:52:36;;;;;;;24.80;11.38;;;;;;;20.64;44.86;94164.47;6098194;23;20014;-92
2023/10/05 10:55:01;;;;;;;102.65;23.50;;;;;;;20.67;44.54;94166.19;6049423;23;20117;-91
2023/10/05 10:57:27;;;;;;;51.97;22.52;;;;;;;20.72;44.48;94168.19;6049317;23;20029;-93
2023/10/05 11:00:43;;;;;;;38.28;19.00;;;;;;;20.76;44.61;94165.16;6048174;23;20528;-92
2023/10/05 11:02:38;;;;;;;69.65;30.45;;;;;;;20.74;44.43;94153.94;6068248;23;20022;-93
2023/10/05 11:05:05;;;;;;;52.35;17.67;;;;;;;20.80;44.45;94146.38;6044282;23;20061;-94
2023/10/05 11:07:34;;;;;;;37.25;16.95;;;;;;;20.82;44.25;94150.13;6064838;23;20016;-95
2023/10/05 11:10:12;;;;;;;78.93;29.90;;;;;;;20.84;44.35;94149.63;6027607;23;20026;-95
2023/10/05 11:12:42;;;;;;;65.53;26.92;;;;;;;20.84;44.29;94147.63;6005756;23;20035;-93
2023/10/05 11:15:11;;;;;;;41.45;21.33;;;;;;;20.87;44.52;94140.34;6009238;23;20024;-96
2023/10/05 11:17:45;;;;;;;47.28;20.50;;;;;;;20.89;44.60;94148.84;5958765;24;20028;-93
2023/10/05 11:20:33;;;;;;;50.20;20.73;;;;;;;20.91;44.78;94146.34;5929936;24;20169;-92
2023/10/05 11:23:03;;;;;;;55.17;23.77;;;;;;;20.91;44.19;94140.09;5897375;24;20025;-93
2023/10/05 11:25:33;;;;;;;50.05;25.25;;;;;;;21.00;44.25;94142.53;5917012;24;20044;-94
2023/10/05 11:28:07;;;;;;;85.05;28.25;;;;;;;20.97;44.45;94138.81;5947696;24;20029;-93
2023/10/05 11:30:45;;;;;;;53.70;24.92;;;;;;;20.98;44.73;94126.56;5905530;24;20028;-95
2023/10/05 11:33:17;;;;;;;67.47;33.35;;;;;;;20.98;44.30;94134.06;5916727;24;20035;-94
2023/10/05 11:35:53;;;;;;;57.05;29.70;;;;;;;20.96;44.41;94126.31;5919957;24;20041;-95
2023/10/05 11:38:26;;;;;;;65.05;28.65;;;;;;;20.99;44.50;94122.53;5913588;24;20509;-94
2023/10/05 11:41:49;;;;;;;74.40;31.15;;;;;;;21.00;44.68;94128.78;5929731;24;20026;-94
2023/10/05 11:44:24;;;;;;;122.88;35.45;;;;;;;21.04;44.42;94124.50;5996824;23;20358;-93
2023/10/05 11:46:53;;;;;;;81.60;26.98;;;;;;;21.03;44.58;94116.75;6055158;23;20017;-94
2023/10/05 11:49:19;;;;;;;99.47;30.33;;;;;;;21.06;44.87;94123.97;6050767;23;20551;-92
2023/10/05 11:52:04;;;;;;;82.13;25.10;;;;;;;21.05;44.76;94128.00;6077072;23;20018;-94
2023/10/05 11:54:42;;;;;;;75.72;25.92;;;;;;;21.04;44.57;94127.25;6034624;23;20498;-94
2023/10/05 11:57:09;;;;;;;72.65;23.85;;;;;;;21.03;44.77;94125.75;6058166;23;20024;-95
2023/10/05 11:59:39;;;;;;;62.85;22.92;;;;;;;21.05;44.89;94130.72;6056231;23;20017;-93
2023/10/05 12:02:11;;;;;;;75.18;24.65;;;;;;;21.06;45.12;94141.22;6055675;23;20362;-93
2023/10/05 12:04:39;;;;;;;79.82;24.67;;;;;;;21.08;44.64;94135.97;6059577;23;20033;-95
2023/10/05 12:07:12;;;;;;;102.55;28.25;;;;;;;21.10;44.68;94119.72;6061314;23;20009;-94
2023/10/05 12:09:43;;;;;;;77.15;22.95;;;;;;;21.22;44.57;94122.41;6058834;23;20093;-94
2023/10/05 12:12:13;;;;;;;;;;;;;;;21.17;44.76;94118.41;6062707;23;20025;-93
2023/10/05 12:14:39;;;;;;;80.77;26.60;;;;;;;21.16;44.45;94125.16;6101479;23;19943;-93
2023/10/05 12:17:05;;;;;;;90.88;23.08;;;;;;;21.12;44.62;94119.19;6057406;23;20240;-93
2023/10/05 12:19:33;;;;;;;75.97;22.30;;;;;;;21.19;44.89;94126.91;6106885;23;20066;-95
2023/10/05 12:22:13;;;;;;;61.53;20.95;;;;;;;21.15;44.70;94121.66;6057205;23;20390;-94
2023/10/05 12:27:47;;;;;;;81.00;20.00;;;;;;;21.16;45.07;94123.16;6129393;23;20022;-94
2023/10/05 12:30:16;;;;;;;55.85;18.80;;;;;;;21.31;44.44;94120.06;6102146;23;20022;-93
2023/10/05 12:32:41;;;;;;;57.63;19.88;;;;;;;21.30;45.02;94124.06;6084850;23;20026;-92
2023/10/05 12:36:02;;;;;;;;;;;;;;;;;;;;;
2023/10/05 12:38:30;;;;;;;50.00;18.45;;;;;;;21.26;44.55;94125.59;5982911;23;20023;-94
2023/10/05 12:41:17;;;;;;;47.42;17.80;;;;;;;21.23;44.63;94121.88;6046285;23;20021;-95
2023/10/05 12:44:00;;;;;;;34.95;14.98;;;;;;;21.28;44.71;94118.34;6126627;23;20017;-95
2023/10/05 12:46:32;;;;;;;27.30;13.45;;;;;;;21.31;44.83;94128.31;6083686;23;20013;-93
2023/10/05 12:49:29;;;;;;;30.73;13.20;;;;;;;21.29;44.65;94117.09;6102846;23;20044;-94
2023/10/05 12:51:56;;;;;;;33.10;12.60;;;;;;;21.30;44.88;94120.56;6086436;23;20071;-93
2023/10/05 12:54:28;;;;;;;26.85;12.90;;;;;;;21.31;44.46;94122.81;6014445;23;20033;-93
2023/10/05 12:57:08;;;;;;;35.38;17.35;;;;;;;21.30;44.94;94121.31;5999126;23;20034;-94
2023/10/05 12:59:36;;;;;;;76.35;28.30;;;;;;;21.28;44.72;94125.84;5983391;23;20019;-93
2023/10/05 13:02:19;;;;;;;53.53;24.60;;;;;;;21.28;44.68;94118.34;5989913;23;20074;-94
2023/10/05 13:05:07;;;;;;;92.57;33.85;;;;;;;21.28;44.77;94123.84;6004406;23;20075;-94
2023/10/05 13:08:11;;;;;;;80.88;31.60;;;;;;;21.28;44.54;94117.59;5999436;23;20023;-94
2023/10/05 13:16:28;;;;;;;79.38;28.88;;;;;;;21.29;44.89;94119.09;6091689;23;20014;-94
2023/10/05 13:19:13;;;;;;;63.33;28.20;;;;;;;21.28;44.65;94121.09;6059989;23;20033;-94
2023/10/05 13:21:44;;;;;;;71.32;29.92;;;;;;;21.29;44.49;94119.84;6030471;23;20023;-92
2023/10/05 13:24:41;;;;;;;96.28;39.08;;;;;;;21.27;44.48;94118.84;5981909;23;20028;-94
2023/10/05 13:27:58;;;;;;;99.25;46.40;;;;;;;21.33;44.37;94119.56;5925267;23;20097;-95
2023/10/05 13:30:40;;;;;;;102.55;42.28;;;;;;;21.30;44.50;94118.56;5906140;24;20022;-93
2023/10/05 13:40:57;;;;;;;88.90;41.80;;;;;;;21.27;44.64;94116.84;6096579;23;20013;-94
2023/10/05 13:43:39;;;;;;;96.88;45.42;;;;;;;21.29;44.37;94122.56;6083950;23;20023;-93
2023/10/05 13:46:21;;;;;;;80.43;39.00;;;;;;;21.36;44.33;94118.53;6117240;23;20017;-93
2023/10/05 13:48:54;;;;;;;73.97;37.50;;;;;;;21.37;44.27;94114.53;5999339;23;20066;-92
2023/10/05 13:56:37;;;;;;;153.25;51.03;;;;;;;21.33;44.26;94114.06;6124585;23;20019;-93
2023/10/05 13:59:17;;;;;;;164.73;49.35;;;;;;;21.41;44.19;94104.75;6091769;23;20011;-93
2023/10/05 14:05:09;;;;;;;174.35;69.38;;;;;;;21.37;44.29;94107.03;6136431;23;20010;-96
2023/10/05 14:07:51;;;;;;;182.05;72.35;;;;;;;21.37;43.90;94114.53;6034327;23;20025;-95
2023/10/05 14:14:17;;;;;;;170.25;82.88;;;;;;;21.37;44.35;94117.28;6112116;23;20516;-93
2023/10/05 14:17:07;;;;;;;141.40;69.15;;;;;;;21.35;44.30;94111.53;5907416;24;20076;-94
2023/10/05 14:20:04;;;;;;;142.82;68.32;;;;;;;21.38;44.63;94118.78;5909983;23;20031;-93